Time;durP1;ratioP1;P1;durP2;ratioP2;P2;SDS_P1;SDS_P2;PMS_P1;PMS_P2;Temp;Humidity;BMP_temperature;BMP_pressure;BME280_temperature;BME280_humidity;BME280_pressure;Samples;Min_cycle;Max_cycle;Signal;HPM_P1;HPM_P2
2022/09/08 00:01:49;;;;;;;9.63;6.53;;;;;;;;;;5031487;28;20044;-73
2022/09/08 00:04:15;;;;;;;8.48;6.32;;;;;;;;;;5014675;28;20041;-74
2022/09/08 00:06:41;;;;;;;10.32;6.32;;;;;;;;;;5031247;28;20037;-73
2022/09/08 00:09:07;;;;;;;9.77;6.40;;;;;;;;;;5033275;28;20385;-74
2022/09/08 00:11:34;;;;;;;9.48;6.38;;;;;;;;;;5033473;28;20038;-73
2022/09/08 00:14:03;;;;;;;10.32;6.10;;;;;;;;;;5030167;28;20041;-73
2022/09/08 00:16:29;;;;;;;8.52;6.13;;;;;;;;;;5035918;28;20066;-73
2022/09/08 00:18:55;;;;;;;9.20;6.18;;;;;;;;;;5033237;28;20393;-73
2022/09/08 00:21:23;;;;;;;7.10;6.07;;;;;;;;;;5031379;28;20401;-73
2022/09/08 00:23:49;;;;;;;8.13;5.90;;;;;;;;;;5031079;28;20076;-72
2022/09/08 00:26:15;;;;;;;7.07;6.18;;;;;;;;;;5031530;28;20037;-73
2022/09/08 00:28:41;;;;;;;7.68;6.70;;;;;;;;;;5031873;28;20446;-73
2022/09/08 00:31:07;;;;;;;9.15;6.78;;;;;;;;;;5023829;28;20040;-73
2022/09/08 00:33:33;;;;;;;7.40;6.60;;;;;;;;;;5031172;28;20033;-73
2022/09/08 00:35:59;;;;;;;8.20;7.10;;;;;;;;;;5031464;28;20388;-73
2022/09/08 00:38:26;;;;;;;9.55;7.10;;;;;;;;;;5051246;28;20069;-73
2022/09/08 00:40:52;;;;;;;9.32;7.75;;;;;;;;;;5044763;28;20124;-75
2022/09/08 00:43:38;;;;;;;9.20;7.15;;;;;;;;;;5042718;28;20083;-72
2022/09/08 00:46:17;;;;;;;9.48;8.20;;;;;;;;;;5016366;28;20343;-73
2022/09/08 00:48:48;;;;;;;10.75;7.50;;;;;;;;;;5053257;28;20032;-72
2022/09/08 00:51:16;;;;;;;10.77;7.50;;;;;;;;;;5062204;28;20032;-73
2022/09/08 00:53:43;;;;;;;11.43;8.48;;;;;;;;;;5062466;28;20323;-74
2022/09/08 00:56:09;;;;;;;8.98;8.07;;;;;;;;;;5048063;28;20045;-75
2022/09/08 00:58:36;;;;;;;9.68;8.63;;;;;;;;;;5050626;28;20036;-73
2022/09/08 01:01:03;;;;;;;9.80;8.85;;;;;;;;;;5052096;28;20090;-73
2022/09/08 01:03:31;;;;;;;10.57;9.52;;;;;;;;;;5051868;28;20076;-73
2022/09/08 01:06:17;;;;;;;12.73;10.05;;;;;;;;;;5052573;28;20021;-73
2022/09/08 01:14:45;;;;;;;13.68;10.35;;;;;;;;;;5051144;28;20612;-73
2022/09/08 01:17:14;;;;;;;12.27;10.50;;;;;;;;;;5018319;28;20748;-74
2022/09/08 01:19:40;;;;;;;12.48;11.05;;;;;;;;;;5050414;28;20033;-74
2022/09/08 01:22:18;;;;;;;12.75;11.45;;;;;;;;;;5051479;28;20029;-73
2022/09/08 01:24:58;;;;;;;15.10;12.00;;;;;;;;;;5046448;28;20078;-73
2022/09/08 01:27:26;;;;;;;14.48;12.43;;;;;;;;;;5032877;28;20036;-73
2022/09/08 01:29:56;;;;;;;17.58;12.85;;;;;;;;;;5031875;28;20029;-74
2022/09/08 01:32:22;;;;;;;16.05;13.20;;;;;;;;;;5050304;28;20025;-74
2022/09/08 01:34:50;;;;;;;16.25;13.27;;;;;;;;;;5048979;28;20025;-74
2022/09/08 01:37:16;;;;;;;17.58;12.82;;;;;;;;;;5048238;28;20124;-74
2022/09/08 01:39:43;;;;;;;15.02;13.45;;;;;;;;;;5045478;28;20035;-74
2022/09/08 01:42:09;;;;;;;16.90;15.13;;;;;;;;;;5048988;28;20553;-74
2022/09/08 01:44:35;;;;;;;15.55;13.95;;;;;;;;;;5045032;28;20443;-75
2022/09/08 01:47:01;;;;;;;16.92;14.90;;;;;;;;;;5049105;28;20029;-74
2022/09/08 01:49:27;;;;;;;23.25;14.40;;;;;;;;;;5045851;28;20040;-73
2022/09/08 01:51:53;;;;;;;20.58;16.75;;;;;;;;;;5050170;28;20025;-74
2022/09/08 01:54:20;;;;;;;15.90;14.23;;;;;;;;;;5049735;28;20094;-73
2022/09/08 01:56:46;;;;;;;17.45;15.63;;;;;;;;;;5051593;28;20021;-73
2022/09/08 01:59:12;;;;;;;15.85;14.20;;;;;;;;;;5047811;28;20021;-74
2022/09/08 02:01:38;;;;;;;19.17;16.52;;;;;;;;;;5038253;28;20026;-74
2022/09/08 02:04:05;;;;;;;17.95;16.08;;;;;;;;;;5043397;28;20037;-74
2022/09/08 02:06:31;;;;;;;20.48;17.30;;;;;;;;;;5032320;28;20037;-74
2022/09/08 02:08:57;;;;;;;19.20;16.40;;;;;;;;;;5048911;28;20033;-74
2022/09/08 02:11:23;;;;;;;19.27;17.25;;;;;;;;;;5050956;28;20033;-73
2022/09/08 02:13:49;;;;;;;19.58;17.48;;;;;;;;;;5050809;28;20431;-74
2022/09/08 02:16:16;;;;;;;19.95;17.85;;;;;;;;;;5049896;28;20021;-74
2022/09/08 02:18:42;;;;;;;20.60;18.40;;;;;;;;;;5047424;28;20033;-74
2022/09/08 02:21:10;;;;;;;20.48;18.38;;;;;;;;;;5050500;28;20037;-73
2022/09/08 02:23:37;;;;;;;21.17;18.67;;;;;;;;;;5050670;28;20126;-73
2022/09/08 02:26:03;;;;;;;22.20;18.60;;;;;;;;;;5040089;28;20425;-73
2022/09/08 02:28:29;;;;;;;21.50;19.20;;;;;;;;;;5064856;28;20037;-73
2022/09/08 02:30:59;;;;;;;21.08;18.85;;;;;;;;;;5049623;28;20029;-74
2022/09/08 02:33:26;;;;;;;20.75;18.52;;;;;;;;;;5053656;28;20072;-73
2022/09/08 02:35:53;;;;;;;20.65;18.05;;;;;;;;;;5049653;28;20764;-74
2022/09/08 02:38:19;;;;;;;19.63;17.58;;;;;;;;;;5049605;28;20048;-73
2022/09/08 02:40:45;;;;;;;23.27;20.30;;;;;;;;;;5054900;28;20163;-73
2022/09/08 02:43:11;;;;;;;21.75;19.10;;;;;;;;;;5046035;28;20067;-73
2022/09/08 02:45:40;;;;;;;27.30;19.60;;;;;;;;;;5053070;28;20029;-73
2022/09/08 02:48:06;;;;;;;23.63;19.08;;;;;;;;;;5053733;28;20045;-73
2022/09/08 02:50:33;;;;;;;22.90;19.13;;;;;;;;;;5054360;28;20063;-73
2022/09/08 02:52:59;;;;;;;23.95;20.65;;;;;;;;;;5053044;28;20350;-75
2022/09/08 02:55:26;;;;;;;22.10;19.83;;;;;;;;;;5051045;28;20036;-73
2022/09/08 02:57:52;;;;;;;22.38;20.02;;;;;;;;;;5054124;28;20064;-73
2022/09/08 03:00:18;;;;;;;21.23;18.10;;;;;;;;;;5053068;28;20033;-73
2022/09/08 03:02:45;;;;;;;23.08;20.52;;;;;;;;;;5053885;28;20025;-73
2022/09/08 03:05:11;;;;;;;21.48;19.27;;;;;;;;;;5031994;28;20034;-74
2022/09/08 03:07:38;;;;;;;22.50;19.92;;;;;;;;;;5047413;28;20021;-73
2022/09/08 03:10:05;;;;;;;25.70;20.48;;;;;;;;;;5040645;28;20033;-73
2022/09/08 03:12:31;;;;;;;23.25;20.55;;;;;;;;;;5049277;28;20033;-73
2022/09/08 03:14:57;;;;;;;22.95;19.23;;;;;;;;;;5051973;28;20493;-73
2022/09/08 03:17:24;;;;;;;24.52;20.45;;;;;;;;;;5042107;28;20028;-73
2022/09/08 03:19:50;;;;;;;23.80;20.30;;;;;;;;;;5050483;28;20037;-74
2022/09/08 03:22:17;;;;;;;22.55;20.05;;;;;;;;;;5052970;28;20021;-74
2022/09/08 03:24:43;;;;;;;23.45;20.58;;;;;;;;;;5053561;28;20045;-73
2022/09/08 03:27:10;;;;;;;24.60;21.00;;;;;;;;;;5053730;28;20060;-73
2022/09/08 03:29:36;;;;;;;23.35;19.67;;;;;;;;;;5029459;28;20033;-73
2022/09/08 03:32:03;;;;;;;25.92;21.00;;;;;;;;;;5039328;28;20037;-73
2022/09/08 03:34:29;;;;;;;25.77;21.33;;;;;;;;;;5040468;28;20033;-73
2022/09/08 03:36:55;;;;;;;23.52;21.00;;;;;;;;;;5052710;28;20052;-74
2022/09/08 03:39:21;;;;;;;22.85;20.45;;;;;;;;;;5046533;28;20025;-74
2022/09/08 03:41:47;;;;;;;25.67;22.90;;;;;;;;;;5051831;28;20095;-73
2022/09/08 03:44:13;;;;;;;23.05;20.38;;;;;;;;;;5047213;28;20039;-73
2022/09/08 03:46:39;;;;;;;23.27;20.88;;;;;;;;;;5051813;28;20037;-74
2022/09/08 03:49:06;;;;;;;21.30;19.10;;;;;;;;;;5052814;28;20043;-73
2022/09/08 03:51:32;;;;;;;23.63;21.35;;;;;;;;;;5052799;28;20025;-73
2022/09/08 03:56:44;;;;;;;24.17;21.67;;;;;;;;;;5053277;28;20770;-73
2022/09/08 03:59:10;;;;;;;25.63;22.70;;;;;;;;;;5053101;28;20030;-73
2022/09/08 04:01:36;;;;;;;25.85;23.20;;;;;;;;;;5031712;28;20477;-74
2022/09/08 04:04:03;;;;;;;28.63;23.05;;;;;;;;;;5052766;28;20112;-73
2022/09/08 04:06:30;;;;;;;29.70;26.52;;;;;;;;;;5053979;28;20038;-73
2022/09/08 04:08:56;;;;;;;30.70;27.30;;;;;;;;;;5053184;28;20028;-74
2022/09/08 04:11:22;;;;;;;31.27;25.60;;;;;;;;;;5053135;28;20025;-73
2022/09/08 04:13:50;;;;;;;26.92;23.83;;;;;;;;;;5050820;28;20380;-74
2022/09/08 04:16:16;;;;;;;27.75;23.48;;;;;;;;;;5059119;28;20039;-74
2022/09/08 04:18:43;;;;;;;28.63;24.65;;;;;;;;;;5057614;28;20036;-74
2022/09/08 04:21:10;;;;;;;28.92;23.98;;;;;;;;;;5047550;28;20100;-73
2022/09/08 04:23:37;;;;;;;31.80;26.17;;;;;;;;;;5030781;28;20032;-73
2022/09/08 04:26:04;;;;;;;33.40;26.15;;;;;;;;;;5046146;28;20037;-73
2022/09/08 04:28:31;;;;;;;29.73;26.52;;;;;;;;;;5034407;28;20021;-73
2022/09/08 04:30:57;;;;;;;29.02;25.73;;;;;;;;;;5046165;28;20037;-73
2022/09/08 04:33:24;;;;;;;27.75;24.02;;;;;;;;;;5051606;28;20029;-73
2022/09/08 04:35:50;;;;;;;28.20;23.30;;;;;;;;;;5052579;28;20094;-73
2022/09/08 04:38:16;;;;;;;25.55;21.00;;;;;;;;;;5032240;28;20064;-73
2022/09/08 04:40:42;;;;;;;21.67;19.38;;;;;;;;;;5031587;28;20079;-73
2022/09/08 04:43:08;;;;;;;19.80;17.77;;;;;;;;;;5032408;28;20128;-73
2022/09/08 04:45:34;;;;;;;20.30;18.15;;;;;;;;;;5031171;28;20188;-73
2022/09/08 04:48:01;;;;;;;20.20;18.05;;;;;;;;;;5015323;28;20037;-74
2022/09/08 04:50:27;;;;;;;21.48;19.17;;;;;;;;;;5038383;28;20025;-74
2022/09/08 04:52:53;;;;;;;25.73;20.55;;;;;;;;;;5035040;28;20044;-74
2022/09/08 04:55:19;;;;;;;24.63;21.30;;;;;;;;;;5032861;28;20025;-74
2022/09/08 04:57:45;;;;;;;24.95;20.48;;;;;;;;;;5031883;28;20061;-74
2022/09/08 05:00:13;;;;;;;22.80;19.55;;;;;;;;;;5028871;28;20037;-73
2022/09/08 05:02:39;;;;;;;23.17;20.77;;;;;;;;;;5024397;28;20073;-72
2022/09/08 05:05:05;;;;;;;29.38;23.02;;;;;;;;;;5037022;28;20052;-73
2022/09/08 05:07:31;;;;;;;26.15;23.35;;;;;;;;;;5016361;28;20470;-72
2022/09/08 05:09:57;;;;;;;27.67;24.77;;;;;;;;;;5017951;28;20576;-74
2022/09/08 05:12:24;;;;;;;29.35;23.55;;;;;;;;;;5048637;28;20424;-73
2022/09/08 05:14:50;;;;;;;26.50;23.45;;;;;;;;;;5020002;28;20120;-74
2022/09/08 05:17:16;;;;;;;26.13;22.77;;;;;;;;;;5015814;28;20045;-74
2022/09/08 05:19:42;;;;;;;27.35;21.23;;;;;;;;;;5026707;28;20048;-73
2022/09/08 05:22:09;;;;;;;23.40;19.60;;;;;;;;;;5022301;28;20033;-73
2022/09/08 05:24:35;;;;;;;20.05;17.38;;;;;;;;;;5018583;28;20050;-73
2022/09/08 05:27:01;;;;;;;19.85;17.08;;;;;;;;;;5019738;28;20128;-74
2022/09/08 05:29:27;;;;;;;19.05;16.67;;;;;;;;;;5019025;28;20305;-74
2022/09/08 05:31:53;;;;;;;19.58;17.58;;;;;;;;;;5001140;28;20529;-74
2022/09/08 05:34:19;;;;;;;21.02;18.83;;;;;;;;;;5017631;28;20428;-73
2022/09/08 05:36:45;;;;;;;25.58;20.27;;;;;;;;;;5018850;28;20490;-73
2022/09/08 05:39:11;;;;;;;22.48;20.20;;;;;;;;;;5020918;28;20469;-73
2022/09/08 05:41:37;;;;;;;24.33;20.67;;;;;;;;;;5030600;28;20025;-73
2022/09/08 05:44:05;;;;;;;23.40;20.13;;;;;;;;;;5030748;28;20037;-73
2022/09/08 05:46:31;;;;;;;25.63;22.55;;;;;;;;;;5022689;28;20025;-74
2022/09/08 05:48:58;;;;;;;25.23;21.70;;;;;;;;;;5012069;28;20530;-73
2022/09/08 05:51:25;;;;;;;32.75;23.65;;;;;;;;;;5011035;28;20037;-72
2022/09/08 05:53:51;;;;;;;25.83;23.05;;;;;;;;;;5031164;28;20044;-73
2022/09/08 05:56:18;;;;;;;25.17;22.50;;;;;;;;;;5011913;28;20034;-74
2022/09/08 05:58:50;;;;;;;25.67;22.67;;;;;;;;;;5029680;28;20030;-74
2022/09/08 06:01:16;;;;;;;26.08;21.50;;;;;;;;;;5015617;28;20038;-76
2022/09/08 06:03:42;;;;;;;33.53;26.55;;;;;;;;;;5027992;28;20041;-73
2022/09/08 06:06:09;;;;;;;44.42;28.55;;;;;;;;;;5019783;28;20029;-73
2022/09/08 06:08:36;;;;;;;39.20;27.40;;;;;;;;;;5028700;28;20455;-74
2022/09/08 06:11:02;;;;;;;29.88;25.20;;;;;;;;;;5030824;28;20358;-74
2022/09/08 06:13:29;;;;;;;35.92;25.38;;;;;;;;;;5039796;28;20044;-75
2022/09/08 06:16:01;;;;;;;32.10;26.40;;;;;;;;;;5024165;28;20475;-75
2022/09/08 06:18:27;;;;;;;32.50;26.40;;;;;;;;;;5012828;28;20034;-74
2022/09/08 06:20:53;;;;;;;34.85;27.98;;;;;;;;;;5034833;28;20025;-74
2022/09/08 06:23:19;;;;;;;36.20;28.42;;;;;;;;;;5033306;28;20048;-72
2022/09/08 06:25:46;;;;;;;35.53;29.67;;;;;;;;;;5029665;28;20358;-71
2022/09/08 06:28:35;;;;;;;35.30;29.85;;;;;;;;;;5033782;28;20034;-71
2022/09/08 06:31:01;;;;;;;41.70;31.95;;;;;;;;;;5034443;28;20025;-73
2022/09/08 06:33:33;;;;;;;39.40;31.88;;;;;;;;;;5016252;28;20034;-72
2022/09/08 06:36:09;;;;;;;41.30;32.80;;;;;;;;;;5034065;28;20068;-72
2022/09/08 06:38:38;;;;;;;39.80;32.25;;;;;;;;;;5033859;28;20053;-71
2022/09/08 06:41:15;;;;;;;43.38;32.88;;;;;;;;;;5021119;28;20038;-71
2022/09/08 06:43:43;;;;;;;48.45;36.22;;;;;;;;;;5023527;28;20042;-71
2022/09/08 06:46:29;;;;;;;60.67;36.95;;;;;;;;;;5016219;28;20033;-72
2022/09/08 06:48:55;;;;;;;51.90;36.17;;;;;;;;;;5028160;28;20025;-70
2022/09/08 06:51:41;;;;;;;51.78;39.53;;;;;;;;;;5015521;28;20037;-70
2022/09/08 06:54:10;;;;;;;78.75;46.42;;;;;;;;;;5033994;28;20489;-71
2022/09/08 06:56:49;;;;;;;70.18;47.92;;;;;;;;;;5014160;28;20029;-71
2022/09/08 06:59:25;;;;;;;59.92;44.00;;;;;;;;;;5016837;28;20029;-71
2022/09/08 07:02:03;;;;;;;56.28;41.75;;;;;;;;;;5032552;28;20053;-70
2022/09/08 07:04:29;;;;;;;63.67;44.95;;;;;;;;;;5014753;28;20041;-71
2022/09/08 07:07:21;;;;;;;54.35;41.70;;;;;;;;;;5028051;28;20033;-71
2022/09/08 07:10:03;;;;;;;60.85;41.50;;;;;;;;;;4989233;28;20052;-70
2022/09/08 07:12:48;;;;;;;50.35;40.65;;;;;;;;;;5024199;28;20025;-70
2022/09/08 07:15:14;;;;;;;64.05;44.15;;;;;;;;;;5033334;28;20078;-70
2022/09/08 07:17:49;;;;;;;57.60;43.72;;;;;;;;;;5030768;28;20113;-72
2022/09/08 07:20:15;;;;;;;67.53;43.25;;;;;;;;;;5011417;28;20044;-70
2022/09/08 07:23:05;;;;;;;52.65;38.00;;;;;;;;;;5028992;28;20033;-70
2022/09/08 07:25:34;;;;;;;62.88;40.97;;;;;;;;;;5032290;28;20025;-70
2022/09/08 07:28:04;;;;;;;50.10;34.80;;;;;;;;;;5033076;28;20029;-71
2022/09/08 07:30:30;;;;;;;49.15;34.75;;;;;;;;;;5032234;28;20098;-71
2022/09/08 07:33:03;;;;;;;43.50;31.77;;;;;;;;;;5033189;28;20029;-71
2022/09/08 07:35:42;;;;;;;50.08;35.25;;;;;;;;;;5031483;28;20052;-70
2022/09/08 07:38:15;;;;;;;46.17;33.03;;;;;;;;;;5034625;28;20139;-70
2022/09/08 07:40:48;;;;;;;47.78;33.15;;;;;;;;;;5048689;28;20045;-70
2022/09/08 07:43:15;;;;;;;46.58;32.03;;;;;;;;;;5041633;28;20104;-71
2022/09/08 07:45:51;;;;;;;40.75;31.50;;;;;;;;;;5046016;28;20052;-72
2022/09/08 07:48:23;;;;;;;44.05;32.78;;;;;;;;;;5043928;28;20496;-70
2022/09/08 07:50:56;;;;;;;41.63;30.25;;;;;;;;;;5047224;28;20039;-70
2022/09/08 07:53:24;;;;;;;41.95;30.27;;;;;;;;;;5053779;28;20111;-70
2022/09/08 07:55:50;;;;;;;41.58;29.40;;;;;;;;;;5055393;28;20032;-70
2022/09/08 07:58:31;;;;;;;32.58;25.95;;;;;;;;;;5049564;28;20033;-72
2022/09/08 08:01:00;;;;;;;23.25;20.67;;;;;;;;;;5039226;28;20035;-70
2022/09/08 08:03:29;;;;;;;27.60;21.55;;;;;;;;;;5033540;28;20435;-70
2022/09/08 08:06:02;;;;;;;15.73;13.43;;;;;;;;;;5051963;28;20029;-72
2022/09/08 08:08:41;;;;;;;26.75;19.48;;;;;;;;;;5048823;28;20531;-70
2022/09/08 08:11:07;;;;;;;18.85;16.25;;;;;;;;;;5022300;28;20076;-72
2022/09/08 08:13:46;;;;;;;20.48;14.63;;;;;;;;;;5050963;28;20388;-70
2022/09/08 08:16:14;;;;;;;24.95;17.75;;;;;;;;;;5044598;28;20025;-70
2022/09/08 08:18:41;;;;;;;25.42;16.60;;;;;;;;;;5048670;28;20378;-70
2022/09/08 08:21:15;;;;;;;19.75;14.55;;;;;;;;;;5051296;28;20025;-70
2022/09/08 08:23:51;;;;;;;17.85;11.57;;;;;;;;;;5052429;28;20037;-70
2022/09/08 08:26:29;;;;;;;14.25;10.63;;;;;;;;;;5050365;28;20082;-70
2022/09/08 08:29:11;;;;;;;11.38;10.18;;;;;;;;;;5050901;28;20752;-70
2022/09/08 08:31:45;;;;;;;14.85;8.23;;;;;;;;;;5046946;28;20021;-70
2022/09/08 08:34:18;;;;;;;9.73;8.68;;;;;;;;;;5050309;28;20064;-70
2022/09/08 08:36:45;;;;;;;9.25;7.25;;;;;;;;;;5048979;28;20690;-70
2022/09/08 08:39:15;;;;;;;7.65;6.70;;;;;;;;;;5045701;28;20028;-70
2022/09/08 08:42:04;;;;;;;12.65;7.68;;;;;;;;;;5050483;28;20103;-70
2022/09/08 08:44:48;;;;;;;12.00;7.35;;;;;;;;;;5003259;28;20045;-70
2022/09/08 08:47:17;;;;;;;12.13;8.43;;;;;;;;;;5049540;28;20033;-70
2022/09/08 08:50:02;;;;;;;10.50;7.50;;;;;;;;;;5048629;28;20032;-70
2022/09/08 08:52:40;;;;;;;5.22;4.47;;;;;;;;;;5045465;28;20039;-70
2022/09/08 08:55:09;;;;;;;8.77;4.43;;;;;;;;;;5047904;28;20247;-70
2022/09/08 08:57:39;;;;;;;5.25;4.32;;;;;;;;;;5044134;28;20036;-70
2022/09/08 09:00:11;;;;;;;5.47;3.08;;;;;;;;;;5048857;28;20032;-72
2022/09/08 09:02:46;;;;;;;4.53;3.88;;;;;;;;;;5035184;28;20036;-70
2022/09/08 09:05:15;;;;;;;4.45;2.92;;;;;;;;;;5050807;28;20079;-70
2022/09/08 09:08:02;;;;;;;2.97;1.70;;;;;;;;;;5054180;28;20085;-70
2022/09/08 09:10:48;;;;;;;3.35;1.83;;;;;;;;;;5047734;28;20032;-70
2022/09/08 09:13:33;;;;;;;2.40;1.75;;;;;;;;;;5047995;28;20025;-70
2022/09/08 09:16:17;;;;;;;4.30;1.98;;;;;;;;;;5050148;28;20399;-70
2022/09/08 09:18:50;;;;;;;4.35;2.38;;;;;;;;;;5036835;28;20552;-70
2022/09/08 09:21:22;;;;;;;3.45;2.08;;;;;;;;;;5048199;28;20703;-70
2022/09/08 09:23:48;;;;;;;;;;;;;;;;;;5049704;28;20033;-70
2022/09/08 09:26:19;;;;;;;4.03;1.40;;;;;;;;;;5048895;28;19912;-70
2022/09/08 09:28:48;;;;;;;1.38;1.27;;;;;;;;;;5030028;28;20353;-70
2022/09/08 09:31:23;;;;;;;2.65;1.35;;;;;;;;;;5045657;28;20025;-70
2022/09/08 09:34:07;;;;;;;1.50;1.40;;;;;;;;;;5050471;28;21926;-70
2022/09/08 09:36:49;;;;;;;2.00;1.60;;;;;;;;;;5050779;28;20080;-70
2022/09/08 09:39:29;;;;;;;1.88;1.60;;;;;;;;;;5044574;28;20377;-70
2022/09/08 09:42:08;;;;;;;2.00;1.50;;;;;;;;;;5038434;28;20035;-70
2022/09/08 09:44:52;;;;;;;2.58;1.60;;;;;;;;;;5049536;28;20044;-70
2022/09/08 09:47:21;;;;;;;3.25;1.92;;;;;;;;;;5046538;28;20044;-70
2022/09/08 09:49:50;;;;;;;4.55;2.20;;;;;;;;;;5048598;28;20029;-70
2022/09/08 09:52:21;;;;;;;3.60;2.15;;;;;;;;;;5053902;28;20036;-70
2022/09/08 09:54:54;;;;;;;2.28;1.90;;;;;;;;;;5057993;28;20119;-70
2022/09/08 09:57:38;;;;;;;2.95;2.10;;;;;;;;;;5039135;28;20075;-71
2022/09/08 10:00:11;;;;;;;2.85;2.10;;;;;;;;;;5044231;28;20040;-71
2022/09/08 10:02:40;;;;;;;2.70;2.03;;;;;;;;;;5048446;28;20033;-70
2022/09/08 10:05:24;;;;;;;2.35;2.08;;;;;;;;;;5050765;28;20048;-70
2022/09/08 10:08:09;;;;;;;3.88;2.30;;;;;;;;;;5043971;28;20469;-71
2022/09/08 10:10:55;;;;;;;3.50;2.83;;;;;;;;;;5038272;28;20036;-71
2022/09/08 10:13:30;;;;;;;6.03;4.43;;;;;;;;;;5047540;28;20431;-71
2022/09/08 10:15:56;;;;;;;6.95;3.95;;;;;;;;;;5038888;28;20379;-70
2022/09/08 10:18:34;;;;;;;8.75;3.80;;;;;;;;;;5042814;28;20028;-72
2022/09/08 10:21:00;;;;;;;4.88;3.25;;;;;;;;;;5037118;28;20044;-70
2022/09/08 10:23:40;;;;;;;5.05;4.18;;;;;;;;;;5030367;28;20404;-70
2022/09/08 10:26:19;;;;;;;10.80;4.35;;;;;;;;;;5039749;28;20477;-70
2022/09/08 10:28:49;;;;;;;6.82;3.33;;;;;;;;;;5057551;28;20017;-70
2022/09/08 10:31:32;;;;;;;6.20;3.30;;;;;;;;;;5044923;28;20036;-70
2022/09/08 10:34:17;;;;;;;6.63;2.63;;;;;;;;;;5049559;28;20099;-70
2022/09/08 10:36:52;;;;;;;7.65;2.78;;;;;;;;;;5043109;28;20069;-70
2022/09/08 10:39:30;;;;;;;4.95;2.00;;;;;;;;;;5046382;28;20055;-70
2022/09/08 10:41:56;;;;;;;6.45;1.73;;;;;;;;;;5047931;28;20507;-70
2022/09/08 10:44:34;;;;;;;3.05;1.55;;;;;;;;;;5049096;28;20087;-71
2022/09/08 10:47:14;;;;;;;8.65;1.90;;;;;;;;;;5052818;28;20033;-70
2022/09/08 10:49:40;;;;;;;3.45;1.70;;;;;;;;;;5054495;28;20107;-70
2022/09/08 10:52:25;;;;;;;3.92;1.60;;;;;;;;;;5060051;28;20431;-70
2022/09/08 10:54:59;;;;;;;9.25;2.00;;;;;;;;;;5046847;28;20044;-72
2022/09/08 10:57:46;;;;;;;5.53;1.98;;;;;;;;;;5047400;28;20039;-70
2022/09/08 11:00:18;;;;;;;14.90;3.35;;;;;;;;;;5050847;28;20048;-70
2022/09/08 11:02:53;;;;;;;7.05;2.63;;;;;;;;;;5049278;28;20111;-70
2022/09/08 11:05:22;;;;;;;7.28;2.80;;;;;;;;;;5053253;28;20029;-69
2022/09/08 11:08:11;;;;;;;7.70;2.78;;;;;;;;;;5052533;28;20440;-72
2022/09/08 11:10:44;;;;;;;9.63;2.63;;;;;;;;;;5051847;28;20029;-70
2022/09/08 11:13:19;;;;;;;5.45;2.80;;;;;;;;;;5051073;28;20423;-72
2022/09/08 11:16:04;;;;;;;4.70;2.30;;;;;;;;;;5055740;28;20057;-70
2022/09/08 11:18:43;;;;;;;5.75;2.53;;;;;;;;;;5045178;28;20025;-70
2022/09/08 11:21:10;;;;;;;9.02;2.78;;;;;;;;;;5055895;28;20152;-70
2022/09/08 11:23:39;;;;;;;7.88;2.30;;;;;;;;;;5053908;28;20485;-70
2022/09/08 11:26:18;;;;;;;6.38;2.17;;;;;;;;;;5051534;28;20047;-70
2022/09/08 11:28:50;;;;;;;7.03;2.70;;;;;;;;;;5052125;28;20029;-70
2022/09/08 11:31:25;;;;;;;7.85;2.35;;;;;;;;;;5049382;28;20231;-69
2022/09/08 11:34:11;;;;;;;4.43;2.70;;;;;;;;;;5047857;28;20037;-70
2022/09/08 11:36:49;;;;;;;4.90;2.78;;;;;;;;;;5061411;28;20048;-70
2022/09/08 11:39:15;;;;;;;6.38;2.63;;;;;;;;;;5038017;28;20037;-69
2022/09/08 11:41:47;;;;;;;5.57;2.60;;;;;;;;;;5048812;28;20033;-70
2022/09/08 11:44:34;;;;;;;4.18;2.65;;;;;;;;;;5051138;28;20037;-73
2022/09/08 11:47:18;;;;;;;5.88;3.50;;;;;;;;;;5055237;28;20098;-72
2022/09/08 11:49:45;;;;;;;7.63;3.17;;;;;;;;;;5057502;28;20459;-69
2022/09/08 11:52:11;;;;;;;3.67;2.83;;;;;;;;;;5071610;28;20028;-70
2022/09/08 11:54:39;;;;;;;4.18;2.85;;;;;;;;;;5049914;28;20103;-72
2022/09/08 11:57:16;;;;;;;6.65;2.80;;;;;;;;;;5051277;28;20025;-71
2022/09/08 11:59:49;;;;;;;6.80;3.40;;;;;;;;;;5052333;28;20033;-71
2022/09/08 12:02:16;;;;;;;5.45;3.65;;;;;;;;;;5048098;28;20345;-70
2022/09/08 12:05:11;;;;;;;5.70;3.17;;;;;;;;;;5050169;28;20039;-70
2022/09/08 12:07:40;;;;;;;6.38;3.35;;;;;;;;;;5051056;28;20091;-70
2022/09/08 12:10:19;;;;;;;5.93;3.70;;;;;;;;;;5047817;28;20029;-70
2022/09/08 12:13:04;;;;;;;6.90;4.40;;;;;;;;;;5051627;28;20029;-70
2022/09/08 12:15:46;;;;;;;5.88;4.00;;;;;;;;;;5046189;28;20044;-70
2022/09/08 12:18:22;;;;;;;6.22;4.40;;;;;;;;;;5039460;28;20029;-71
2022/09/08 12:21:07;;;;;;;7.00;4.38;;;;;;;;;;5049667;28;20147;-70
2022/09/08 12:23:48;;;;;;;8.15;4.78;;;;;;;;;;5051083;28;20477;-72
2022/09/08 12:26:20;;;;;;;7.28;4.55;;;;;;;;;;5049563;28;20029;-72
2022/09/08 12:28:49;;;;;;;8.80;4.97;;;;;;;;;;5055009;28;20044;-70
2022/09/08 12:31:21;;;;;;;6.32;4.35;;;;;;;;;;5039660;28;20534;-71
2022/09/08 12:34:10;;;;;;;12.50;5.38;;;;;;;;;;5049546;28;20074;-70
2022/09/08 12:36:45;;;;;;;5.28;4.70;;;;;;;;;;5049458;28;20075;-70
2022/09/08 12:39:20;;;;;;;7.50;4.55;;;;;;;;;;5048841;28;20033;-70
2022/09/08 12:41:55;;;;;;;7.05;5.13;;;;;;;;;;5049543;28;20021;-70
2022/09/08 12:44:41;;;;;;;9.13;5.60;;;;;;;;;;5050824;28;20033;-70
2022/09/08 12:47:26;;;;;;;7.55;5.63;;;;;;;;;;5033131;28;20041;-71
2022/09/08 12:50:11;;;;;;;7.55;6.03;;;;;;;;;;5055344;28;20103;-70
2022/09/08 12:52:37;;;;;;;7.18;5.35;;;;;;;;;;5050527;28;20025;-71
2022/09/08 12:55:27;;;;;;;9.20;5.95;;;;;;;;;;5033125;28;20029;-70
2022/09/08 12:57:54;;;;;;;9.05;5.47;;;;;;;;;;5050237;28;20393;-70
2022/09/08 13:00:25;;;;;;;6.78;5.75;;;;;;;;;;5050757;28;20032;-71
2022/09/08 13:03:09;;;;;;;8.55;6.30;;;;;;;;;;5050509;28;20036;-70
2022/09/08 13:05:45;;;;;;;8.23;6.68;;;;;;;;;;5037320;28;20591;-70
2022/09/08 13:08:29;;;;;;;8.93;5.88;;;;;;;;;;5049791;28;20025;-70
2022/09/08 13:11:08;;;;;;;8.70;6.53;;;;;;;;;;5047203;28;20037;-71
2022/09/08 13:13:44;;;;;;;11.80;7.22;;;;;;;;;;5050373;28;20055;-71
2022/09/08 13:16:10;;;;;;;9.75;6.68;;;;;;;;;;5041094;28;20041;-70
2022/09/08 13:18:47;;;;;;;7.40;6.70;;;;;;;;;;5048833;28;20098;-70
2022/09/08 13:21:14;;;;;;;11.95;6.97;;;;;;;;;;5050340;28;20029;-70
2022/09/08 13:23:46;;;;;;;15.98;7.43;;;;;;;;;;5047950;28;20033;-70
2022/09/08 13:26:38;;;;;;;8.10;6.45;;;;;;;;;;5040899;28;20108;-70
2022/09/08 13:29:23;;;;;;;8.95;7.55;;;;;;;;;;5047028;28;20531;-71
2022/09/08 13:31:55;;;;;;;10.85;7.40;;;;;;;;;;5041364;28;20039;-70
2022/09/08 13:34:22;;;;;;;9.38;7.68;;;;;;;;;;5049432;28;20552;-71
2022/09/08 13:37:05;;;;;;;9.40;7.05;;;;;;;;;;5039571;28;20037;-70
2022/09/08 13:39:57;;;;;;;8.93;7.68;;;;;;;;;;5008019;28;20049;-73
2022/09/08 13:42:29;;;;;;;19.67;9.15;;;;;;;;;;5028182;28;20034;-70
2022/09/08 13:45:07;;;;;;;11.10;9.07;;;;;;;;;;5029903;28;20156;-71
2022/09/08 13:47:39;;;;;;;11.70;9.10;;;;;;;;;;5017989;28;20037;-70
2022/09/08 13:50:34;;;;;;;12.30;9.18;;;;;;;;;;5028295;28;20021;-70
2022/09/08 13:53:11;;;;;;;12.57;9.00;;;;;;;;;;4959415;28;20046;-70
2022/09/08 13:55:47;;;;;;;13.18;9.82;;;;;;;;;;5030695;28;20029;-70
2022/09/08 13:58:13;;;;;;;14.57;9.50;;;;;;;;;;5029570;28;20104;-70
2022/09/08 14:00:58;;;;;;;12.95;8.15;;;;;;;;;;5029565;28;20116;-70
2022/09/08 14:03:24;;;;;;;12.82;9.13;;;;;;;;;;5030118;28;20033;-70
2022/09/08 14:05:52;;;;;;;14.43;10.90;;;;;;;;;;5022295;28;20037;-70
2022/09/08 14:08:23;;;;;;;16.83;10.25;;;;;;;;;;5008997;28;20099;-70
2022/09/08 14:11:08;;;;;;;14.48;10.70;;;;;;;;;;5029847;28;20493;-70
2022/09/08 14:13:34;;;;;;;12.90;10.38;;;;;;;;;;5029113;28;20083;-70
2022/09/08 14:16:12;;;;;;;14.15;10.70;;;;;;;;;;5028577;28;20319;-70
2022/09/08 14:18:50;;;;;;;12.10;10.07;;;;;;;;;;5029100;28;20022;-70
2022/09/08 14:21:24;;;;;;;13.85;10.98;;;;;;;;;;5013180;28;20095;-70
2022/09/08 14:23:57;;;;;;;14.60;11.45;;;;;;;;;;5018579;28;20398;-71
2022/09/08 14:26:23;;;;;;;11.95;10.75;;;;;;;;;;5039210;28;20037;-71
2022/09/08 14:28:58;;;;;;;12.77;10.82;;;;;;;;;;5025897;28;20596;-70
2022/09/08 14:31:39;;;;;;;15.48;11.68;;;;;;;;;;5029545;28;20057;-72
2022/09/08 14:34:34;;;;;;;12.77;10.45;;;;;;;;;;5031553;28;20025;-70
2022/09/08 14:37:10;;;;;;;16.67;11.15;;;;;;;;;;5026425;28;20094;-70
2022/09/08 14:39:48;;;;;;;11.80;10.40;;;;;;;;;;5041963;28;20098;-70
2022/09/08 14:42:25;;;;;;;12.15;10.30;;;;;;;;;;5041940;28;20060;-70
2022/09/08 14:45:12;;;;;;;17.17;10.43;;;;;;;;;;5049381;28;20046;-70
2022/09/08 14:47:53;;;;;;;14.00;10.82;;;;;;;;;;5033742;28;20494;-70
2022/09/08 14:50:19;;;;;;;17.23;11.63;;;;;;;;;;5032159;28;20457;-71
2022/09/08 14:52:47;;;;;;;14.63;12.00;;;;;;;;;;5034085;28;20025;-71
2022/09/08 14:55:23;;;;;;;14.95;11.35;;;;;;;;;;5033466;28;20441;-71
2022/09/08 14:57:50;;;;;;;16.75;12.40;;;;;;;;;;5038269;28;20025;-71
2022/09/08 15:00:19;;;;;;;13.65;11.45;;;;;;;;;;5036274;28;20080;-71
2022/09/08 15:02:54;;;;;;;16.35;12.05;;;;;;;;;;5020297;28;20531;-70
2022/09/08 15:05:25;;;;;;;12.63;10.68;;;;;;;;;;5040120;28;20083;-71